Time;durP1;ratioP1;P1;durP2;ratioP2;P2;SDS_P1;SDS_P2;PMS_P1;PMS_P2;Temp;Humidity;BMP_temperature;BMP_pressure;BME280_temperature;BME280_humidity;BME280_pressure;Samples;Min_cycle;Max_cycle;Signal;HPM_P1;HPM_P2
2023/10/07 00:00:24;;;;;;;;;18.67;17.00;;;;;;;;5068905;28;47387;-77
2023/10/07 00:02:50;;;;;;;;;17.00;16.00;;;;;;;;5086180;28;45469;-77
2023/10/07 00:05:17;;;;;;;;;17.67;17.67;;;;;;;;5085738;28;45299;-76
2023/10/07 00:07:45;;;;;;;;;18.33;17.33;;;;;;;;5065684;28;46266;-77
2023/10/07 00:10:14;;;;;;;;;18.67;16.67;;;;;;;;5087843;28;45284;-78
2023/10/07 00:12:40;;;;;;;;;15.00;15.00;;;;;;;;5088604;28;45295;-77
2023/10/07 00:15:10;;;;;;;;;12.67;12.00;;;;;;;;5076952;28;45367;-77
2023/10/07 00:17:42;;;;;;;;;14.33;13.00;;;;;;;;5087374;28;45247;-77
2023/10/07 00:20:09;;;;;;;;;13.00;12.00;;;;;;;;5090359;28;45582;-77
2023/10/07 00:22:40;;;;;;;;;14.67;13.33;;;;;;;;5100198;28;44598;-77
2023/10/07 00:25:06;;;;;;;;;14.00;13.00;;;;;;;;5100325;28;45390;-78
2023/10/07 00:27:38;;;;;;;;;15.00;15.00;;;;;;;;5098620;28;44669;-77
2023/10/07 00:30:12;;;;;;;;;16.33;16.00;;;;;;;;5100905;28;45370;-77
2023/10/07 00:32:38;;;;;;;;;16.00;13.33;;;;;;;;5076637;28;45286;-76
2023/10/07 00:35:06;;;;;;;;;19.33;15.33;;;;;;;;5101849;28;45414;-77
2023/10/07 00:37:33;;;;;;;;;15.00;15.00;;;;;;;;5095862;28;45326;-77
2023/10/07 00:40:13;;;;;;;;;14.00;13.00;;;;;;;;5102189;27;45238;-76
2023/10/07 00:42:42;;;;;;;;;15.67;14.33;;;;;;;;5091032;27;45315;-76
2023/10/07 00:45:14;;;;;;;;;13.00;13.00;;;;;;;;5106881;27;45130;-77
2023/10/07 00:47:40;;;;;;;;;14.00;14.00;;;;;;;;5093602;27;45689;-76
2023/10/07 00:50:09;;;;;;;;;17.33;16.67;;;;;;;;5093704;27;45304;-76
2023/10/07 00:52:41;;;;;;;;;17.00;15.67;;;;;;;;5093474;28;45138;-77
2023/10/07 00:59:58;;;;;;;;;16.67;16.00;;;;;;;;5101411;28;45303;-77
2023/10/07 01:02:30;;;;;;;;;14.00;14.00;;;;;;;;5077746;28;45309;-76
2023/10/07 01:05:06;;;;;;;;;16.00;15.00;;;;;;;;5095214;27;45307;-77
2023/10/07 01:07:34;;;;;;;;;13.67;13.33;;;;;;;;5098697;28;45405;-76
2023/10/07 01:12:38;;;;;;;;;16.67;14.67;;;;;;;;5101172;28;45221;-76
2023/10/07 01:15:04;;;;;;;;;13.33;13.33;;;;;;;;5084605;28;45374;-77
2023/10/07 01:17:31;;;;;;;;;16.00;15.33;;;;;;;;5103396;28;44779;-77
2023/10/07 01:19:56;;;;;;;;;18.67;18.67;;;;;;;;5083408;28;47242;-76
2023/10/07 01:22:28;;;;;;;;;13.33;12.00;;;;;;;;5099235;28;45295;-76
2023/10/07 01:24:56;;;;;;;;;16.67;13.67;;;;;;;;5105587;28;44803;-77
2023/10/07 01:29:59;;;;;;;;;15.33;14.67;;;;;;;;5094974;28;45209;-77
2023/10/07 01:32:31;;;;;;;;;18.33;17.00;;;;;;;;5107353;27;44677;-77
2023/10/07 01:34:57;;;;;;;;;14.00;14.00;;;;;;;;5106602;27;44745;-77
2023/10/07 01:37:23;;;;;;;;;15.33;14.33;;;;;;;;5097805;27;45517;-76
2023/10/07 01:39:49;;;;;;;;;16.33;15.33;;;;;;;;5076662;28;48387;-79
2023/10/07 01:42:23;;;;;;;;;16.67;16.33;;;;;;;;5103284;28;44585;-77
2023/10/07 01:44:54;;;;;;;;;19.67;18.33;;;;;;;;5099911;28;44601;-78
2023/10/07 01:47:29;;;;;;;;;14.33;14.00;;;;;;;;5081201;28;46595;-78
2023/10/07 01:49:56;;;;;;;;;19.00;18.00;;;;;;;;5100020;28;45291;-77
2023/10/07 01:52:26;;;;;;;;;15.00;14.67;;;;;;;;5106010;27;45049;-77
2023/10/07 01:54:52;;;;;;;;;15.33;15.00;;;;;;;;5103223;28;44796;-77
2023/10/07 01:57:17;;;;;;;;;11.67;11.67;;;;;;;;5104667;28;44703;-76
2023/10/07 01:59:42;;;;;;;;;14.00;13.67;;;;;;;;5105214;28;45227;-77
2023/10/07 02:02:10;;;;;;;;;14.33;13.33;;;;;;;;5106542;27;44638;-76
2023/10/07 02:04:37;;;;;;;;;15.00;15.00;;;;;;;;5103024;28;45300;-77
2023/10/07 02:07:02;;;;;;;;;15.33;13.67;;;;;;;;5083442;28;45750;-76
2023/10/07 02:09:29;;;;;;;;;16.00;15.67;;;;;;;;5104661;27;45157;-76
2023/10/07 02:11:55;;;;;;;;;16.00;16.00;;;;;;;;5107159;27;45216;-77
2023/10/07 02:14:24;;;;;;;;;5.67;4.33;;;;;;;;5085974;28;45201;-77
2023/10/07 02:16:50;;;;;;;;;12.00;12.00;;;;;;;;5102148;28;45235;-77
2023/10/07 02:19:26;;;;;;;;;12.33;11.67;;;;;;;;5104274;27;45133;-77
2023/10/07 02:21:52;;;;;;;;;15.00;15.00;;;;;;;;5104540;27;44646;-77
2023/10/07 02:24:21;;;;;;;;;15.00;13.00;;;;;;;;5104824;27;44800;-76
2023/10/07 02:26:53;;;;;;;;;14.33;14.00;;;;;;;;5086589;28;46014;-77
2023/10/07 02:29:19;;;;;;;;;15.33;12.67;;;;;;;;5097668;27;45573;-76
2023/10/07 02:31:44;;;;;;;;;16.67;16.67;;;;;;;;5085305;28;45111;-77
2023/10/07 02:34:21;;;;;;;;;14.00;14.00;;;;;;;;5085296;28;44602;-77
2023/10/07 02:36:51;;;;;;;;;15.00;13.33;;;;;;;;5066137;28;46067;-76
2023/10/07 02:39:23;;;;;;;;;15.00;15.00;;;;;;;;5086160;28;45216;-77
2023/10/07 02:41:49;;;;;;;;;12.00;11.67;;;;;;;;5066599;28;45362;-77
2023/10/07 02:44:25;;;;;;;;;15.00;11.67;;;;;;;;5084625;28;44752;-76
2023/10/07 02:46:52;;;;;;;;;8.00;6.67;;;;;;;;5105299;27;45713;-77
2023/10/07 02:49:20;;;;;;;;;12.67;11.67;;;;;;;;5101481;28;45285;-76
2023/10/07 02:51:46;;;;;;;;;13.33;13.00;;;;;;;;5105573;27;44609;-76
2023/10/07 02:54:22;;;;;;;;;13.33;12.67;;;;;;;;5103552;27;44705;-76
2023/10/07 02:59:35;;;;;;;;;17.33;15.00;;;;;;;;5105599;27;45219;-77
2023/10/07 03:02:22;;;;;;;;;13.33;12.33;;;;;;;;5104275;27;44673;-76
2023/10/07 03:07:34;;;;;;;;;14.33;12.67;;;;;;;;5105772;27;45193;-76
2023/10/07 03:10:16;;;;;;;;;13.67;13.00;;;;;;;;5085556;28;47015;-76
2023/10/07 03:12:47;;;;;;;;;14.00;12.00;;;;;;;;5104410;27;44731;-76
2023/10/07 03:15:20;;;;;;;;;14.67;13.67;;;;;;;;5103994;27;45425;-77
2023/10/07 03:17:46;;;;;;;;;12.67;11.33;;;;;;;;5085101;28;46167;-78
2023/10/07 03:26:20;;;;;;;;;15.33;15.33;;;;;;;;5101697;28;45476;-77
2023/10/07 03:28:19;;;;;;;;;15.67;15.67;;;;;;;;5094115;27;45292;-77
2023/10/07 03:30:51;;;;;;;;;15.67;14.67;;;;;;;;5096462;28;45292;-77
2023/10/07 03:33:17;;;;;;;;;14.00;13.00;;;;;;;;5084479;28;45269;-77
2023/10/07 03:36:31;;;;;;;;;13.33;13.00;;;;;;;;5105913;27;44643;-76
2023/10/07 03:38:32;;;;;;;;;14.33;12.33;;;;;;;;5095125;28;44760;-77
2023/10/07 03:40:57;;;;;;;;;14.00;14.00;;;;;;;;5085830;27;47018;-76
2023/10/07 03:43:29;;;;;;;;;16.00;14.67;;;;;;;;5086281;28;44635;-78
2023/10/07 03:45:54;;;;;;;;;15.00;13.67;;;;;;;;5087022;28;45229;-77
2023/10/07 03:48:31;;;;;;;;;13.00;12.67;;;;;;;;5086122;28;46393;-76
2023/10/07 03:50:59;;;;;;;;;15.00;12.67;;;;;;;;5098546;28;45231;-76
2023/10/07 03:53:31;;;;;;;;;14.67;14.00;;;;;;;;5102221;27;45175;-77
2023/10/07 03:55:57;;;;;;;;;18.33;16.33;;;;;;;;5104924;27;45243;-77
2023/10/07 03:58:22;;;;;;;;;14.33;13.67;;;;;;;;5086490;28;47080;-77
2023/10/07 04:00:47;;;;;;;;;15.67;12.67;;;;;;;;5082302;28;47326;-76
2023/10/07 04:03:15;;;;;;;;;15.33;15.00;;;;;;;;5100307;28;44668;-76
2023/10/07 04:05:45;;;;;;;;;17.33;15.33;;;;;;;;5085052;28;44759;-77
2023/10/07 04:08:11;;;;;;;;;15.67;15.33;;;;;;;;5102598;27;45172;-76
2023/10/07 04:10:45;;;;;;;;;14.67;14.00;;;;;;;;5085700;28;46157;-76
2023/10/07 04:13:11;;;;;;;;;13.33;13.00;;;;;;;;5103801;27;45220;-77
2023/10/07 04:15:44;;;;;;;;;14.00;14.00;;;;;;;;5084690;28;44788;-76
2023/10/07 04:18:09;;;;;;;;;15.67;14.67;;;;;;;;5102379;28;45270;-76
2023/10/07 04:20:51;;;;;;;;;12.33;11.00;;;;;;;;5104485;27;44991;-77
2023/10/07 04:23:24;;;;;;;;;14.00;13.33;;;;;;;;5085508;27;44573;-77
2023/10/07 04:25:50;;;;;;;;;15.67;14.00;;;;;;;;5084640;28;45280;-76
2023/10/07 04:28:15;;;;;;;;;13.33;13.33;;;;;;;;5085175;28;46322;-77
2023/10/07 04:30:46;;;;;;;;;12.67;12.67;;;;;;;;5102527;28;44912;-76
2023/10/07 04:33:12;;;;;;;;;17.00;16.33;;;;;;;;5102939;28;44704;-77
2023/10/07 04:35:38;;;;;;;;;19.67;18.67;;;;;;;;5084458;28;45335;-76
2023/10/07 04:38:30;;;;;;;;;18.00;14.67;;;;;;;;5102923;28;44724;-77
2023/10/07 04:46:23;;;;;;;;;18.00;18.00;;;;;;;;5104961;27;44619;-77
2023/10/07 04:48:55;;;;;;;;;14.00;14.00;;;;;;;;5102079;28;44871;-76
2023/10/07 04:53:59;;;;;;;;;18.00;17.00;;;;;;;;5101807;27;45571;-77
2023/10/07 04:56:25;;;;;;;;;13.00;13.00;;;;;;;;5099485;28;44649;-77
2023/10/07 04:58:52;;;;;;;;;13.33;13.33;;;;;;;;5098897;28;45267;-77
2023/10/07 05:01:36;;;;;;;;;19.67;17.33;;;;;;;;5099528;28;46011;-77
2023/10/07 05:04:05;;;;;;;;;15.33;14.33;;;;;;;;5103539;27;45244;-76
2023/10/07 05:06:34;;;;;;;;;14.33;14.33;;;;;;;;5094849;28;44687;-76
2023/10/07 05:08:59;;;;;;;;;18.00;16.00;;;;;;;;5090410;27;45464;-76
2023/10/07 05:11:26;;;;;;;;;14.00;14.00;;;;;;;;5103133;27;46420;-77
2023/10/07 05:13:52;;;;;;;;;15.00;15.00;;;;;;;;5101443;28;44874;-76
2023/10/07 05:16:19;;;;;;;;;18.33;16.33;;;;;;;;5078429;28;44804;-76
2023/10/07 05:18:44;;;;;;;;;16.00;15.00;;;;;;;;5090916;28;44775;-76
2023/10/07 05:21:11;;;;;;;;;16.00;15.00;;;;;;;;5091247;27;45662;-77
2023/10/07 05:23:37;;;;;;;;;17.67;17.67;;;;;;;;5100241;27;45200;-77
2023/10/07 05:26:03;;;;;;;;;18.00;16.00;;;;;;;;5095879;28;45256;-76
2023/10/07 05:28:30;;;;;;;;;15.00;14.33;;;;;;;;5078829;28;46022;-76
2023/10/07 05:30:57;;;;;;;;;17.00;14.67;;;;;;;;5090879;28;45056;-77
2023/10/07 05:33:26;;;;;;;;;16.67;16.33;;;;;;;;5096291;28;45308;-76
2023/10/07 05:36:08;;;;;;;;;16.33;14.33;;;;;;;;5092208;28;45382;-76
2023/10/07 05:38:35;;;;;;;;;16.33;15.67;;;;;;;;5077781;28;46360;-76
2023/10/07 05:41:01;;;;;;;;;15.67;15.00;;;;;;;;5092990;27;45270;-77
2023/10/07 05:43:27;;;;;;;;;15.00;14.33;;;;;;;;5081603;28;45321;-76
2023/10/07 05:45:52;;;;;;;;;16.00;15.33;;;;;;;;5091085;28;45145;-76
2023/10/07 05:48:17;;;;;;;;;18.00;15.00;;;;;;;;5091255;28;45505;-77
2023/10/07 05:50:42;;;;;;;;;14.00;13.67;;;;;;;;5092587;28;44995;-76
2023/10/07 05:53:07;;;;;;;;;15.33;12.00;;;;;;;;5090513;28;45343;-76
2023/10/07 05:55:36;;;;;;;;;17.33;14.33;;;;;;;;5088341;28;45084;-76
2023/10/07 05:58:02;;;;;;;;;15.00;15.00;;;;;;;;5099866;27;45366;-76
2023/10/07 06:00:31;;;;;;;;;15.00;15.00;;;;;;;;5092815;28;44922;-77
2023/10/07 06:02:57;;;;;;;;;18.00;17.33;;;;;;;;5089605;28;44846;-76
2023/10/07 06:05:27;;;;;;;;;17.00;17.00;;;;;;;;5072058;28;44766;-76
2023/10/07 06:07:52;;;;;;;;;18.67;16.33;;;;;;;;5087974;28;44664;-76
2023/10/07 06:10:17;;;;;;;;;14.33;13.33;;;;;;;;5072955;28;45217;-77
2023/10/07 06:12:43;;;;;;;;;16.00;16.00;;;;;;;;5072721;28;45235;-77
2023/10/07 06:15:08;;;;;;;;;13.00;13.00;;;;;;;;5080477;28;45197;-78
2023/10/07 06:17:34;;;;;;;;;16.33;16.33;;;;;;;;5072172;28;46231;-80
2023/10/07 06:20:04;;;;;;;;;18.00;14.67;;;;;;;;5064103;28;48373;-82
2023/10/07 06:22:41;;;;;;;;;15.00;15.00;;;;;;;;5079945;28;45398;-82
2023/10/07 06:25:07;;;;;;;;;17.00;16.00;;;;;;;;5081504;28;45319;-80
2023/10/07 06:27:37;;;;;;;;;18.33;16.00;;;;;;;;5065885;28;46024;-79
2023/10/07 06:30:03;;;;;;;;;16.00;14.33;;;;;;;;5090250;28;45290;-79
2023/10/07 06:32:43;;;;;;;;;20.67;18.33;;;;;;;;5079142;28;45378;-79
2023/10/07 06:35:13;;;;;;;;;17.00;15.33;;;;;;;;5099782;28;45190;-76
2023/10/07 06:37:38;;;;;;;;;18.00;14.67;;;;;;;;5078987;28;44782;-77
2023/10/07 06:40:13;;;;;;;;;19.67;18.00;;;;;;;;5078531;28;45000;-76
2023/10/07 06:42:40;;;;;;;;;17.67;16.00;;;;;;;;5081932;28;45135;-76
2023/10/07 06:45:08;;;;;;;;;15.67;15.67;;;;;;;;5076007;28;45284;-80
2023/10/07 06:47:34;;;;;;;;;20.33;17.67;;;;;;;;5077023;28;45407;-78
2023/10/07 06:50:03;;;;;;;;;22.33;18.67;;;;;;;;5080509;28;45180;-78
2023/10/07 06:52:28;;;;;;;;;19.67;18.00;;;;;;;;5060135;28;46194;-81
2023/10/07 06:54:56;;;;;;;;;23.67;21.33;;;;;;;;5083309;28;45508;-80
2023/10/07 06:57:22;;;;;;;;;18.67;17.00;;;;;;;;5090814;28;45356;-78
2023/10/07 06:59:53;;;;;;;;;17.33;17.33;;;;;;;;5087510;28;45182;-79
2023/10/07 07:02:23;;;;;;;;;18.00;16.33;;;;;;;;5067908;28;45028;-78
2023/10/07 07:04:48;;;;;;;;;16.67;16.67;;;;;;;;5089513;28;45296;-78
2023/10/07 07:07:16;;;;;;;;;20.67;20.00;;;;;;;;5086050;28;45301;-77
2023/10/07 07:09:42;;;;;;;;;19.67;19.00;;;;;;;;5093191;28;45278;-78
2023/10/07 07:12:11;;;;;;;;;20.00;18.67;;;;;;;;5094492;28;45201;-78
2023/10/07 07:14:37;;;;;;;;;21.67;18.00;;;;;;;;5097392;28;45355;-77
2023/10/07 07:22:33;;;;;;;;;16.00;16.00;;;;;;;;5089731;27;45422;-80
2023/10/07 07:25:03;;;;;;;;;18.33;17.67;;;;;;;;5063885;27;45944;-80
2023/10/07 07:27:33;;;;;;;;;16.00;16.00;;;;;;;;5063272;27;46298;-79
2023/10/07 07:30:01;;;;;;;;;15.00;15.00;;;;;;;;5092909;27;45727;-81
2023/10/07 07:32:28;;;;;;;;;10.33;8.67;;;;;;;;5091710;27;46012;-79
2023/10/07 07:34:56;;;;;;;;;15.00;14.33;;;;;;;;5068504;27;45820;-78
2023/10/07 07:37:22;;;;;;;;;17.33;17.00;;;;;;;;5090366;27;46583;-78
2023/10/07 07:39:48;;;;;;;;;16.33;15.00;;;;;;;;5081945;27;47193;-78
2023/10/07 07:42:22;;;;;;;;;18.67;15.67;;;;;;;;5096412;27;45576;-79
2023/10/07 07:44:56;;;;;;;;;19.67;17.33;;;;;;;;5090561;27;45578;-80
2023/10/07 07:47:22;;;;;;;;;15.00;15.00;;;;;;;;5070033;27;46252;-79
2023/10/07 07:49:48;;;;;;;;;18.00;15.00;;;;;;;;5070200;27;46580;-79
2023/10/07 07:52:15;;;;;;;;;16.00;16.00;;;;;;;;5090534;27;45371;-81
2023/10/07 07:54:40;;;;;;;;;24.33;22.00;;;;;;;;5088537;27;45490;-80
2023/10/07 07:57:07;;;;;;;;;24.33;19.67;;;;;;;;5091374;27;45853;-81
2023/10/07 07:59:33;;;;;;;;;20.67;19.33;;;;;;;;5066663;27;48057;-80
2023/10/07 08:04:38;;;;;;;;;24.67;21.33;;;;;;;;5087178;27;46314;-81
2023/10/07 08:07:17;;;;;;;;;20.67;17.33;;;;;;;;5068622;27;47314;-79
2023/10/07 08:09:42;;;;;;;;;17.33;15.00;;;;;;;;5090974;27;45330;-79
2023/10/07 08:12:09;;;;;;;;;18.00;15.67;;;;;;;;5078316;27;46297;-79
2023/10/07 08:14:35;;;;;;;;;22.67;18.67;;;;;;;;5082669;27;45715;-80
2023/10/07 08:17:00;;;;;;;;;15.33;14.33;;;;;;;;5086341;27;45803;-80
2023/10/07 08:19:25;;;;;;;;;17.00;16.00;;;;;;;;5072263;27;47110;-79
2023/10/07 08:21:54;;;;;;;;;12.00;11.00;;;;;;;;5071638;27;46322;-83
2023/10/07 08:24:20;;;;;;;;;15.00;13.00;;;;;;;;5087496;27;45776;-79
2023/10/07 08:26:48;;;;;;;;;32.33;29.00;;;;;;;;5084273;27;45809;-81
2023/10/07 08:29:31;;;;;;;;;16.33;16.00;;;;;;;;5088540;27;46435;-78
2023/10/07 08:31:57;;;;;;;;;15.00;15.00;;;;;;;;5085168;27;45501;-81
2023/10/07 08:34:23;;;;;;;;;19.00;18.00;;;;;;;;5093873;27;45642;-80
2023/10/07 08:36:49;;;;;;;;;15.67;13.67;;;;;;;;5064568;27;46349;-79
2023/10/07 08:39:18;;;;;;;;;15.67;15.67;;;;;;;;5091503;27;45753;-79
2023/10/07 08:41:50;;;;;;;;;18.67;17.67;;;;;;;;5094518;27;45784;-80
2023/10/07 08:44:15;;;;;;;;;19.00;17.67;;;;;;;;5072313;27;45497;-78
2023/10/07 08:46:45;;;;;;;;;15.67;15.67;;;;;;;;5095450;27;45977;-80
2023/10/07 08:49:13;;;;;;;;;18.00;16.33;;;;;;;;5072120;27;48531;-82
2023/10/07 08:51:41;;;;;;;;;14.33;13.67;;;;;;;;5069948;27;45249;-85
2023/10/07 08:54:10;;;;;;;;;23.00;21.50;;;;;;;;5088185;27;45833;-81
2023/10/07 08:56:37;;;;;;;;;15.67;15.00;;;;;;;;5094014;27;46115;-80
2023/10/07 08:59:12;;;;;;;;;18.33;13.00;;;;;;;;5080441;27;46224;-81
2023/10/07 09:01:38;;;;;;;;;14.33;12.67;;;;;;;;5059800;28;45787;-82
2023/10/07 09:04:08;;;;;;;;;11.67;11.00;;;;;;;;5040688;28;45475;-82
2023/10/07 09:06:37;;;;;;;;;15.67;14.00;;;;;;;;5087077;28;45429;-80
2023/10/07 09:09:06;;;;;;;;;18.67;16.67;;;;;;;;5087578;28;45319;-82
2023/10/07 09:11:32;;;;;;;;;11.00;11.00;;;;;;;;5089367;28;45358;-79
2023/10/07 09:14:01;;;;;;;;;11.33;11.33;;;;;;;;5075626;28;45246;-78
2023/10/07 09:16:32;;;;;;;;;13.00;12.00;;;;;;;;5080745;27;45662;-79
2023/10/07 09:18:59;;;;;;;;;12.00;11.67;;;;;;;;5097197;28;45302;-79
2023/10/07 09:21:28;;;;;;;;;10.00;10.00;;;;;;;;5098443;28;45196;-78
2023/10/07 09:23:59;;;;;;;;;17.33;16.67;;;;;;;;5079671;28;45304;-76
2023/10/07 09:26:34;;;;;;;;;17.00;15.33;;;;;;;;5077999;28;45289;-78
2023/10/07 09:29:15;;;;;;;;;15.00;15.00;;;;;;;;5075162;27;45304;-78
2023/10/07 09:31:45;;;;;;;;;17.33;15.67;;;;;;;;5071300;28;45302;-76
2023/10/07 09:34:11;;;;;;;;;11.00;10.00;;;;;;;;5072613;28;45289;-78
2023/10/07 09:36:46;;;;;;;;;10.33;10.33;;;;;;;;5057422;28;47092;-75
2023/10/07 09:41:37;;;;;;;;;12.67;11.67;;;;;;;;5076167;28;44634;-77
2023/10/07 09:44:03;;;;;;;;;14.33;12.33;;;;;;;;5079978;27;45862;-75
2023/10/07 09:46:29;;;;;;;;;11.67;10.67;;;;;;;;5100026;27;45335;-76
2023/10/07 09:48:57;;;;;;;;;11.67;9.00;;;;;;;;5067848;28;46968;-75
2023/10/07 09:51:28;;;;;;;;;13.00;10.67;;;;;;;;5083127;28;45438;-75
2023/10/07 09:54:22;;;;;;;;;13.00;11.67;;;;;;;;5067236;28;45499;-75
2023/10/07 09:57:19;;;;;;;;;11.00;10.00;;;;;;;;5053592;28;45268;-75
2023/10/07 10:00:32;;;;;;;;;22.33;16.67;;;;;;;;5053789;28;47684;-75
2023/10/07 10:03:12;;;;;;;;;16.00;14.00;;;;;;;;5071242;28;45364;-75
2023/10/07 10:05:40;;;;;;;;;12.33;12.33;;;;;;;;5068767;28;45249;-75
2023/10/07 10:08:30;;;;;;;;;9.33;9.33;;;;;;;;5053761;28;46080;-75
2023/10/07 10:10:59;;;;;;;;;13.67;12.00;;;;;;;;5071809;28;45488;-75
2023/10/07 10:16:15;;;;;;;;;12.00;11.00;;;;;;;;5071380;28;45307;-76
2023/10/07 10:18:45;;;;;;;;;8.67;8.67;;;;;;;;5081988;27;45987;-79
2023/10/07 10:21:12;;;;;;;;;9.00;9.00;;;;;;;;5108423;27;45199;-75
2023/10/07 10:23:38;;;;;;;;;10.00;9.33;;;;;;;;5062350;28;45250;-78
2023/10/07 10:26:27;;;;;;;;;9.00;9.00;;;;;;;;5061198;28;45394;-77
2023/10/07 10:29:07;;;;;;;;;10.00;9.00;;;;;;;;5060934;28;46986;-77
2023/10/07 10:31:34;;;;;;;;;9.67;9.00;;;;;;;;5068678;28;45367;-78
2023/10/07 10:34:04;;;;;;;;;10.67;10.00;;;;;;;;5050078;27;45405;-78
2023/10/07 10:36:31;;;;;;;;;15.33;13.33;;;;;;;;5082916;28;45344;-76
2023/10/07 10:38:56;;;;;;;;;7.67;7.67;;;;;;;;5080700;28;45407;-76
2023/10/07 10:41:26;;;;;;;;;12.33;11.00;;;;;;;;5083923;27;45764;-75
2023/10/07 10:44:01;;;;;;;;;11.33;10.33;;;;;;;;5088447;28;45299;-79
2023/10/07 10:46:27;;;;;;;;;12.33;10.00;;;;;;;;5092375;28;45311;-78
2023/10/07 10:48:54;;;;;;;;;9.67;8.67;;;;;;;;5073114;28;46400;-77
2023/10/07 10:51:19;;;;;;;;;12.00;10.33;;;;;;;;5069095;28;47492;-76
2023/10/07 10:53:47;;;;;;;;;10.33;9.33;;;;;;;;5091721;28;45489;-76
2023/10/07 10:56:12;;;;;;;;;9.33;8.67;;;;;;;;5088618;28;45317;-77
2023/10/07 10:58:39;;;;;;;;;6.33;5.67;;;;;;;;5085462;28;45284;-78
2023/10/07 11:01:07;;;;;;;;;10.67;9.00;;;;;;;;5059895;28;47569;-77
2023/10/07 11:03:32;;;;;;;;;7.00;7.00;;;;;;;;5062072;28;45789;-78
2023/10/07 11:05:58;;;;;;;;;8.00;8.00;;;;;;;;5082579;28;45347;-77
2023/10/07 11:08:24;;;;;;;;;7.00;7.00;;;;;;;;5074253;28;45173;-75
2023/10/07 11:10:53;;;;;;;;;7.67;7.67;;;;;;;;5070210;28;45542;-77
2023/10/07 11:13:19;;;;;;;;;8.00;8.00;;;;;;;;5050204;28;45571;-75
2023/10/07 11:15:58;;;;;;;;;4.00;4.00;;;;;;;;5065199;28;45364;-77
2023/10/07 11:18:24;;;;;;;;;9.33;8.00;;;;;;;;5063182;28;45507;-75
2023/10/07 11:20:49;;;;;;;;;9.00;8.33;;;;;;;;5067318;28;45364;-77
2023/10/07 11:23:15;;;;;;;;;7.67;7.67;;;;;;;;5073118;28;45111;-77
2023/10/07 11:25:41;;;;;;;;;8.67;8.67;;;;;;;;5074869;28;45323;-79
2023/10/07 11:28:09;;;;;;;;;7.00;7.00;;;;;;;;5077396;28;45453;-77
2023/10/07 11:30:44;;;;;;;;;7.67;7.00;;;;;;;;5096676;28;45480;-78
2023/10/07 11:33:10;;;;;;;;;6.33;5.00;;;;;;;;5098892;28;45350;-78
2023/10/07 11:35:37;;;;;;;;;7.00;6.00;;;;;;;;5098636;28;45244;-77
2023/10/07 11:38:02;;;;;;;;;11.67;8.33;;;;;;;;5097903;28;45303;-78
2023/10/07 11:40:29;;;;;;;;;10.33;8.00;;;;;;;;5095135;28;46210;-79
2023/10/07 11:42:58;;;;;;;;;15.67;15.00;;;;;;;;5093811;28;45122;-80
2023/10/07 11:45:23;;;;;;;;;8.00;8.00;;;;;;;;5097168;28;45659;-78
2023/10/07 11:47:49;;;;;;;;;10.00;9.33;;;;;;;;5098013;28;45347;-78
2023/10/07 11:50:16;;;;;;;;;8.33;8.33;;;;;;;;5076687;28;47496;-78
2023/10/07 11:52:42;;;;;;;;;9.00;9.00;;;;;;;;5095897;28;45303;-77
2023/10/07 11:55:08;;;;;;;;;10.00;8.00;;;;;;;;5100069;27;45288;-77
2023/10/07 11:57:34;;;;;;;;;9.67;7.67;;;;;;;;5082876;28;46812;-77
2023/10/07 11:59:59;;;;;;;;;8.00;6.25;;;;;;;;5082264;28;47488;-78
2023/10/07 12:02:24;;;;;;;;;7.00;7.00;;;;;;;;5099164;28;45204;-77
2023/10/07 12:04:51;;;;;;;;;9.33;9.00;;;;;;;;5098996;27;45466;-76
2023/10/07 12:07:17;;;;;;;;;12.33;12.33;;;;;;;;5100020;27;45237;-76
2023/10/07 12:09:46;;;;;;;;;9.00;8.00;;;;;;;;5101495;27;46232;-78
2023/10/07 12:12:12;;;;;;;;;12.00;11.67;;;;;;;;5097585;28;45229;-78
2023/10/07 12:14:37;;;;;;;;;22.33;18.00;;;;;;;;5100928;27;45470;-77
2023/10/07 12:17:04;;;;;;;;;10.50;9.00;;;;;;;;5103951;28;45311;-77
2023/10/07 12:19:30;;;;;;;;;7.75;7.75;;;;;;;;5100830;28;45257;-79
2023/10/07 12:21:56;;;;;;;;;8.67;8.67;;;;;;;;5077937;28;45811;-78
2023/10/07 12:24:24;;;;;;;;;13.33;13.33;;;;;;;;5084794;28;45304;-78
2023/10/07 12:26:55;;;;;;;;;9.00;9.00;;;;;;;;5100714;28;45685;-78
2023/10/07 12:29:20;;;;;;;;;11.00;10.67;;;;;;;;5083309;28;47010;-77
2023/10/07 12:31:47;;;;;;;;;8.33;8.33;;;;;;;;5081296;28;45432;-78
2023/10/07 12:34:13;;;;;;;;;9.67;9.67;;;;;;;;5101542;28;45260;-79
2023/10/07 12:36:38;;;;;;;;;12.67;12.00;;;;;;;;5102305;28;45317;-79
2023/10/07 12:39:10;;;;;;;;;8.33;8.33;;;;;;;;5103446;28;46438;-79
2023/10/07 12:41:36;;;;;;;;;8.67;8.67;;;;;;;;5084554;28;44998;-78
2023/10/07 12:44:02;;;;;;;;;10.00;8.33;;;;;;;;5064970;28;45257;-77
2023/10/07 12:46:28;;;;;;;;;11.25;10.75;;;;;;;;5062519;28;46141;-77
2023/10/07 12:48:53;;;;;;;;;9.75;9.50;;;;;;;;5084960;28;45799;-78
2023/10/07 12:51:18;;;;;;;;;7.00;7.00;;;;;;;;5085796;28;45307;-78
2023/10/07 12:53:45;;;;;;;;;9.67;8.33;;;;;;;;5085909;28;45249;-78
2023/10/07 12:56:14;;;;;;;;;30.33;25.33;;;;;;;;5086647;28;45357;-77
2023/10/07 12:58:39;;;;;;;;;14.00;10.67;;;;;;;;5086192;28;45371;-78
2023/10/07 13:01:11;;;;;;;;;13.00;12.33;;;;;;;;5085261;28;45201;-76
2023/10/07 13:03:39;;;;;;;;;11.33;11.00;;;;;;;;5085854;28;45291;-77
2023/10/07 13:06:08;;;;;;;;;13.00;13.00;;;;;;;;5085374;28;45214;-78
2023/10/07 13:08:33;;;;;;;;;12.67;12.67;;;;;;;;5066225;28;47301;-76
2023/10/07 13:10:58;;;;;;;;;12.00;11.00;;;;;;;;5087028;28;44726;-77
2023/10/07 13:13:25;;;;;;;;;9.25;8.50;;;;;;;;5087122;28;45277;-78
2023/10/07 13:15:51;;;;;;;;;9.33;8.67;;;;;;;;5084917;28;45402;-77
2023/10/07 13:18:17;;;;;;;;;10.00;10.00;;;;;;;;5066250;28;48099;-77
2023/10/07 13:20:44;;;;;;;;;12.00;10.00;;;;;;;;5078545;28;45287;-77
2023/10/07 13:23:11;;;;;;;;;8.00;8.00;;;;;;;;5055262;28;45372;-77
2023/10/07 13:25:37;;;;;;;;;10.00;10.00;;;;;;;;5070364;28;45351;-78
2023/10/07 13:28:02;;;;;;;;;45.00;32.33;;;;;;;;5058645;27;48426;-78
2023/10/07 13:30:29;;;;;;;;;32.00;22.33;;;;;;;;5045534;28;45230;-78
2023/10/07 13:32:55;;;;;;;;;5.75;5.75;;;;;;;;5043451;28;45714;-77
2023/10/07 13:35:21;;;;;;;;;51.67;37.67;;;;;;;;5061746;28;45240;-78
2023/10/07 13:37:49;;;;;;;;;10.25;7.00;;;;;;;;5043212;28;46438;-78
2023/10/07 13:40:17;;;;;;;;;11.00;9.50;;;;;;;;5061868;28;45343;-78
2023/10/07 13:42:49;;;;;;;;;11.00;9.50;;;;;;;;5083302;27;45477;-78
2023/10/07 13:45:15;;;;;;;;;8.50;7.75;;;;;;;;5102443;27;45476;-78
2023/10/07 13:47:41;;;;;;;;;7.25;7.25;;;;;;;;5102939;27;45419;-76
2023/10/07 13:50:13;;;;;;;;;7.75;7.75;;;;;;;;5102436;27;45322;-78
2023/10/07 13:52:50;;;;;;;;;9.00;9.00;;;;;;;;5083889;27;45251;-78
2023/10/07 13:55:22;;;;;;;;;7.25;7.00;;;;;;;;5102262;27;45257;-77
2023/10/07 13:57:53;;;;;;;;;7.50;7.00;;;;;;;;5102196;27;45892;-77
2023/10/07 14:00:28;;;;;;;;;7.00;7.00;;;;;;;;5083718;27;45310;-77
2023/10/07 14:02:53;;;;;;;;;7.50;7.50;;;;;;;;5083773;27;45599;-77
2023/10/07 14:05:18;;;;;;;;;9.33;9.00;;;;;;;;5101935;27;45469;-77
2023/10/07 14:07:44;;;;;;;;;8.00;8.00;;;;;;;;5101812;27;45330;-77
2023/10/07 14:10:10;;;;;;;;;8.00;7.75;;;;;;;;5102264;27;45404;-77
2023/10/07 14:12:36;;;;;;;;;13.00;11.67;;;;;;;;5102127;27;45295;-76
2023/10/07 14:15:03;;;;;;;;;10.33;9.33;;;;;;;;5101834;27;45492;-76
2023/10/07 14:17:29;;;;;;;;;7.67;7.67;;;;;;;;5102014;27;45499;-78
2023/10/07 14:19:56;;;;;;;;;8.00;6.50;;;;;;;;5083466;27;45226;-78
2023/10/07 14:22:21;;;;;;;;;15.33;14.67;;;;;;;;5101860;27;45372;-77
2023/10/07 14:24:47;;;;;;;;;9.67;8.00;;;;;;;;5063601;28;45543;-77
2023/10/07 14:27:13;;;;;;;;;17.67;14.00;;;;;;;;5062972;28;48465;-78
2023/10/07 14:29:38;;;;;;;;;11.25;8.00;;;;;;;;5081352;28;45294;-76
2023/10/07 14:32:06;;;;;;;;;21.67;18.67;;;;;;;;5063617;28;45294;-77
2023/10/07 14:34:32;;;;;;;;;9.50;9.00;;;;;;;;5081585;28;45596;-79
2023/10/07 14:36:59;;;;;;;;;9.00;9.00;;;;;;;;5063234;28;46036;-76
2023/10/07 14:39:27;;;;;;;;;9.00;7.00;;;;;;;;5081146;28;45376;-77
2023/10/07 14:41:52;;;;;;;;;9.50;9.50;;;;;;;;5084640;28;45346;-78
2023/10/07 14:44:18;;;;;;;;;8.33;7.33;;;;;;;;5090110;28;45197;-78
2023/10/07 14:46:44;;;;;;;;;7.00;7.00;;;;;;;;5090729;28;45913;-79
2023/10/07 14:49:10;;;;;;;;;7.67;7.67;;;;;;;;5086624;28;45394;-79
2023/10/07 14:51:35;;;;;;;;;6.50;6.00;;;;;;;;5089772;28;45468;-78
2023/10/07 14:54:00;;;;;;;;;8.67;8.67;;;;;;;;5069260;28;46135;-79
2023/10/07 14:56:26;;;;;;;;;8.33;7.00;;;;;;;;5090849;28;46552;-79
2023/10/07 14:58:51;;;;;;;;;9.33;9.33;;;;;;;;5071495;28;45686;-78
2023/10/07 15:01:21;;;;;;;;;7.00;7.00;;;;;;;;5090440;28;45355;-79
2023/10/07 15:03:47;;;;;;;;;8.00;8.00;;;;;;;;5092001;28;45135;-79
2023/10/07 15:06:14;;;;;;;;;7.00;7.00;;;;;;;;5090825;28;45312;-78
2023/10/07 15:08:40;;;;;;;;;8.67;7.33;;;;;;;;5091108;28;45275;-79
2023/10/07 15:11:07;;;;;;;;;7.00;7.00;;;;;;;;5089488;28;45262;-78
2023/10/07 15:13:35;;;;;;;;;10.25;9.00;;;;;;;;5075400;28;46202;-79